sensor_id;sensor_type;location;lat;lon;timestamp;pressure;altitude;pressure_sealevel;temperature;humidity
77410;BME280;66481;51.332;22.804;2024-02-23T00:00:26;97882.72;;;6.61;91.22
77410;BME280;66481;51.332;22.804;2024-02-23T00:04:47;97875.53;;;6.63;91.31
77410;BME280;66481;51.332;22.804;2024-02-23T00:08:48;97871.34;;;6.61;91.26
77410;BME280;66481;51.332;22.804;2024-02-23T00:12:49;97878.84;;;6.65;91.97
77410;BME280;66481;51.332;22.804;2024-02-23T00:16:51;97880.53;;;6.66;91.79
77410;BME280;66481;51.332;22.804;2024-02-23T00:20:52;97878.72;;;6.76;91.69
77410;BME280;66481;51.332;22.804;2024-02-23T00:24:53;97890.66;;;6.81;91.59
77410;BME280;66481;51.332;22.804;2024-02-23T00:28:54;97877.66;;;6.89;91.14
77410;BME280;66481;51.332;22.804;2024-02-23T00:32:55;97860.09;;;6.89;91.22
77410;BME280;66481;51.332;22.804;2024-02-23T00:36:56;97864.09;;;6.84;91.52
77410;BME280;66481;51.332;22.804;2024-02-23T00:40:57;97863.13;;;6.94;91.61
77410;BME280;66481;51.332;22.804;2024-02-23T00:44:58;97855.78;;;6.88;91.38
77410;BME280;66481;51.332;22.804;2024-02-23T00:48:59;97850.25;;;6.91;92.14
77410;BME280;66481;51.332;22.804;2024-02-23T00:53:00;97843.63;;;6.87;92.50
77410;BME280;66481;51.332;22.804;2024-02-23T00:57:02;97842.25;;;6.93;92.49
77410;BME280;66481;51.332;22.804;2024-02-23T01:01:04;97832.84;;;6.90;93.52
77410;BME280;66481;51.332;22.804;2024-02-23T01:05:05;97828.97;;;6.94;93.24
77410;BME280;66481;51.332;22.804;2024-02-23T01:09:07;97832.28;;;6.96;93.66
77410;BME280;66481;51.332;22.804;2024-02-23T01:13:08;97830.22;;;6.90;93.91
77410;BME280;66481;51.332;22.804;2024-02-23T01:17:09;97821.75;;;6.87;94.15
77410;BME280;66481;51.332;22.804;2024-02-23T01:21:11;97821.34;;;6.91;94.76
77410;BME280;66481;51.332;22.804;2024-02-23T01:25:12;97827.97;;;6.95;94.65
77410;BME280;66481;51.332;22.804;2024-02-23T01:29:13;97836.28;;;7.01;94.47
77410;BME280;66481;51.332;22.804;2024-02-23T01:33:14;97832.81;;;7.00;94.94
77410;BME280;66481;51.332;22.804;2024-02-23T01:37:15;97815.09;;;7.02;94.69
77410;BME280;66481;51.332;22.804;2024-02-23T01:41:16;97821.09;;;7.04;94.67
77410;BME280;66481;51.332;22.804;2024-02-23T01:45:17;97816.78;;;7.13;94.06
77410;BME280;66481;51.332;22.804;2024-02-23T01:49:20;97814.44;;;7.10;93.55
77410;BME280;66481;51.332;22.804;2024-02-23T01:53:22;97805.72;;;7.00;93.95
77410;BME280;66481;51.332;22.804;2024-02-23T01:57:24;97806.41;;;7.02;94.53
77410;BME280;66481;51.332;22.804;2024-02-23T02:01:25;97801.41;;;7.08;93.72
77410;BME280;66481;51.332;22.804;2024-02-23T02:05:27;97807.53;;;6.99;94.04
77410;BME280;66481;51.332;22.804;2024-02-23T02:09:29;97790.34;;;6.95;94.71
77410;BME280;66481;51.332;22.804;2024-02-23T02:13:30;97808.47;;;6.98;94.68
77410;BME280;66481;51.332;22.804;2024-02-23T02:17:32;97792.84;;;7.06;94.50
77410;BME280;66481;51.332;22.804;2024-02-23T02:21:33;97788.53;;;6.95;94.53
77410;BME280;66481;51.332;22.804;2024-02-23T02:25:34;97798.22;;;6.95;94.70
77410;BME280;66481;51.332;22.804;2024-02-23T02:29:35;97786.63;;;6.97;94.74
77410;BME280;66481;51.332;22.804;2024-02-23T02:33:36;97788.25;;;6.99;94.74
77410;BME280;66481;51.332;22.804;2024-02-23T02:37:38;97783.84;;;6.99;94.28
77410;BME280;66481;51.332;22.804;2024-02-23T02:41:50;97785.91;;;6.95;94.24
77410;BME280;66481;51.332;22.804;2024-02-23T02:45:51;97782.47;;;7.05;94.67
77410;BME280;66481;51.332;22.804;2024-02-23T02:49:52;97787.44;;;7.08;94.15
77410;BME280;66481;51.332;22.804;2024-02-23T02:53:53;97777.34;;;7.03;93.89
77410;BME280;66481;51.332;22.804;2024-02-23T02:57:54;97780.53;;;7.07;94.17
77410;BME280;66481;51.332;22.804;2024-02-23T03:01:55;97785.78;;;7.07;94.10
77410;BME280;66481;51.332;22.804;2024-02-23T03:05:57;97786.34;;;7.20;93.36
77410;BME280;66481;51.332;22.804;2024-02-23T03:09:59;97776.78;;;7.29;93.18
77410;BME280;66481;51.332;22.804;2024-02-23T03:14:00;97775.22;;;7.36;92.19
77410;BME280;66481;51.332;22.804;2024-02-23T03:18:04;97785.44;;;7.59;91.05
77410;BME280;66481;51.332;22.804;2024-02-23T03:22:05;97768.97;;;7.47;90.38
77410;BME280;66481;51.332;22.804;2024-02-23T03:26:07;97781.97;;;7.58;90.80
77410;BME280;66481;51.332;22.804;2024-02-23T03:30:09;97770.72;;;7.66;89.32
77410;BME280;66481;51.332;22.804;2024-02-23T03:34:10;97779.34;;;7.58;90.10
77410;BME280;66481;51.332;22.804;2024-02-23T03:38:11;97776.41;;;7.61;89.20
77410;BME280;66481;51.332;22.804;2024-02-23T03:42:12;97775.84;;;7.67;89.42
77410;BME280;66481;51.332;22.804;2024-02-23T03:46:14;97777.94;;;7.64;89.68
77410;BME280;66481;51.332;22.804;2024-02-23T03:50:16;97775.44;;;7.72;88.61
77410;BME280;66481;51.332;22.804;2024-02-23T03:54:17;97776.81;;;7.76;88.47
77410;BME280;66481;51.332;22.804;2024-02-23T03:58:18;97771.13;;;7.71;88.68
77410;BME280;66481;51.332;22.804;2024-02-23T04:02:19;97776.81;;;7.66;89.40
77410;BME280;66481;51.332;22.804;2024-02-23T04:06:21;97774.78;;;7.60;89.76
77410;BME280;66481;51.332;22.804;2024-02-23T04:10:22;97778.91;;;7.63;89.72
77410;BME280;66481;51.332;22.804;2024-02-23T04:14:23;97769.38;;;7.62;90.42
77410;BME280;66481;51.332;22.804;2024-02-23T04:18:24;97779.63;;;7.55;90.02
77410;BME280;66481;51.332;22.804;2024-02-23T04:22:25;97791.03;;;7.46;91.42
77410;BME280;66481;51.332;22.804;2024-02-23T04:26:27;97768.16;;;7.37;91.63
77410;BME280;66481;51.332;22.804;2024-02-23T04:30:29;97783.53;;;7.51;91.29
77410;BME280;66481;51.332;22.804;2024-02-23T04:34:30;97777.69;;;7.47;91.10
77410;BME280;66481;51.332;22.804;2024-02-23T04:38:31;97791.97;;;7.45;91.55
77410;BME280;66481;51.332;22.804;2024-02-23T04:42:39;97786.03;;;7.43;92.08
77410;BME280;66481;51.332;22.804;2024-02-23T04:46:41;97788.47;;;7.54;91.12
77410;BME280;66481;51.332;22.804;2024-02-23T04:50:42;97783.88;;;7.66;90.92
77410;BME280;66481;51.332;22.804;2024-02-23T04:54:43;97779.34;;;7.58;91.42
77410;BME280;66481;51.332;22.804;2024-02-23T04:58:44;97800.56;;;7.47;91.65
77410;BME280;66481;51.332;22.804;2024-02-23T05:02:45;97797.91;;;7.47;92.28
77410;BME280;66481;51.332;22.804;2024-02-23T05:06:50;97806.41;;;7.41;92.74
77410;BME280;66481;51.332;22.804;2024-02-23T05:10:51;97822.19;;;7.41;93.12
77410;BME280;66481;51.332;22.804;2024-02-23T05:14:53;97828.53;;;7.48;93.21
77410;BME280;66481;51.332;22.804;2024-02-23T05:18:54;97831.31;;;7.37;93.65
77410;BME280;66481;51.332;22.804;2024-02-23T05:22:56;97829.09;;;7.22;94.89
77410;BME280;66481;51.332;22.804;2024-02-23T05:26:57;97845.72;;;7.32;95.34
77410;BME280;66481;51.332;22.804;2024-02-23T05:30:58;97847.09;;;7.17;95.64
77410;BME280;66481;51.332;22.804;2024-02-23T05:35:00;97856.09;;;7.14;96.76
77410;BME280;66481;51.332;22.804;2024-02-23T05:39:01;97865.38;;;7.19;96.61
77410;BME280;66481;51.332;22.804;2024-02-23T05:43:02;97867.84;;;7.10;97.45
77410;BME280;66481;51.332;22.804;2024-02-23T05:47:03;97881.69;;;7.12;96.86
77410;BME280;66481;51.332;22.804;2024-02-23T05:51:05;97875.63;;;7.22;96.81
77410;BME280;66481;51.332;22.804;2024-02-23T05:55:06;97884.47;;;7.11;97.27
77410;BME280;66481;51.332;22.804;2024-02-23T05:59:08;97891.81;;;7.17;97.40
77410;BME280;66481;51.332;22.804;2024-02-23T06:03:10;97888.78;;;7.31;96.50
77410;BME280;66481;51.332;22.804;2024-02-23T06:07:13;97889.19;;;7.17;96.54
77410;BME280;66481;51.332;22.804;2024-02-23T06:11:16;97902.47;;;7.15;97.48
77410;BME280;66481;51.332;22.804;2024-02-23T06:15:17;97906.06;;;7.14;97.03
77410;BME280;66481;51.332;22.804;2024-02-23T06:19:18;97906.34;;;7.21;97.41
77410;BME280;66481;51.332;22.804;2024-02-23T06:23:19;97907.34;;;7.20;96.77
77410;BME280;66481;51.332;22.804;2024-02-23T06:27:23;97913.97;;;7.24;97.23
77410;BME280;66481;51.332;22.804;2024-02-23T06:31:26;97919.63;;;7.20;97.95
77410;BME280;66481;51.332;22.804;2024-02-23T06:35:28;97926.03;;;7.27;97.15
77410;BME280;66481;51.332;22.804;2024-02-23T06:39:29;97933.06;;;7.26;97.75
77410;BME280;66481;51.332;22.804;2024-02-23T06:43:31;97934.31;;;7.22;98.00
77410;BME280;66481;51.332;22.804;2024-02-23T06:47:32;97934.06;;;7.25;98.06
77410;BME280;66481;51.332;22.804;2024-02-23T06:51:33;97936.00;;;7.23;98.40
77410;BME280;66481;51.332;22.804;2024-02-23T06:55:34;97938.63;;;7.33;98.15
77410;BME280;66481;51.332;22.804;2024-02-23T06:59:36;97938.88;;;7.30;97.61
77410;BME280;66481;51.332;22.804;2024-02-23T07:03:37;97941.13;;;7.34;97.31
77410;BME280;66481;51.332;22.804;2024-02-23T07:07:40;97944.19;;;7.40;97.11
77410;BME280;66481;51.332;22.804;2024-02-23T07:11:42;97950.94;;;7.42;96.76
77410;BME280;66481;51.332;22.804;2024-02-23T07:15:47;97948.59;;;7.49;97.11
77410;BME280;66481;51.332;22.804;2024-02-23T07:19:48;97953.06;;;7.48;96.80
77410;BME280;66481;51.332;22.804;2024-02-23T07:23:49;97965.66;;;7.45;96.45
77410;BME280;66481;51.332;22.804;2024-02-23T07:27:50;97972.72;;;7.44;97.31
77410;BME280;66481;51.332;22.804;2024-02-23T07:31:51;97972.84;;;7.43;97.63
77410;BME280;66481;51.332;22.804;2024-02-23T07:35:52;97989.06;;;7.48;97.87
77410;BME280;66481;51.332;22.804;2024-02-23T07:39:53;97986.16;;;7.41;97.96
77410;BME280;66481;51.332;22.804;2024-02-23T07:43:55;97987.25;;;7.48;98.13
77410;BME280;66481;51.332;22.804;2024-02-23T07:47:56;97996.69;;;7.51;98.08
77410;BME280;66481;51.332;22.804;2024-02-23T07:51:57;97994.06;;;7.51;98.42
77410;BME280;66481;51.332;22.804;2024-02-23T07:56:00;97994.75;;;7.53;98.12
77410;BME280;66481;51.332;22.804;2024-02-23T08:00:03;97998.34;;;7.52;97.95
77410;BME280;66481;51.332;22.804;2024-02-23T08:04:05;98008.59;;;7.55;98.21
77410;BME280;66481;51.332;22.804;2024-02-23T08:08:06;98013.47;;;7.60;98.24
77410;BME280;66481;51.332;22.804;2024-02-23T08:12:08;98018.72;;;7.60;98.35
77410;BME280;66481;51.332;22.804;2024-02-23T08:16:09;98001.13;;;7.60;98.60
77410;BME280;66481;51.332;22.804;2024-02-23T08:20:10;98010.97;;;7.58;98.66
77410;BME280;66481;51.332;22.804;2024-02-23T08:24:12;98006.09;;;7.53;99.69
77410;BME280;66481;51.332;22.804;2024-02-23T08:28:13;98017.47;;;7.54;99.67
77410;BME280;66481;51.332;22.804;2024-02-23T08:32:16;98032.16;;;7.57;100.00
77410;BME280;66481;51.332;22.804;2024-02-23T08:36:18;98021.91;;;7.53;100.00
77410;BME280;66481;51.332;22.804;2024-02-23T08:40:20;98036.31;;;7.59;100.00
77410;BME280;66481;51.332;22.804;2024-02-23T08:44:21;98041.44;;;7.61;100.00
77410;BME280;66481;51.332;22.804;2024-02-23T08:48:22;98034.22;;;7.53;100.00
77410;BME280;66481;51.332;22.804;2024-02-23T08:52:23;98047.41;;;7.53;100.00
77410;BME280;66481;51.332;22.804;2024-02-23T08:56:26;98051.66;;;7.54;100.00
77410;BME280;66481;51.332;22.804;2024-02-23T09:00:29;98064.44;;;7.59;100.00
77410;BME280;66481;51.332;22.804;2024-02-23T09:04:30;98066.13;;;7.60;100.00
77410;BME280;66481;51.332;22.804;2024-02-23T09:08:31;98065.94;;;7.61;100.00
77410;BME280;66481;51.332;22.804;2024-02-23T09:12:33;98074.88;;;7.70;100.00
77410;BME280;66481;51.332;22.804;2024-02-23T09:16:35;98071.41;;;7.79;100.00
77410;BME280;66481;51.332;22.804;2024-02-23T09:20:36;98072.66;;;7.85;100.00
77410;BME280;66481;51.332;22.804;2024-02-23T09:24:40;98080.41;;;7.86;100.00
77410;BME280;66481;51.332;22.804;2024-02-23T09:28:41;98084.19;;;7.84;100.00
77410;BME280;66481;51.332;22.804;2024-02-23T09:32:42;98081.53;;;7.84;100.00
77410;BME280;66481;51.332;22.804;2024-02-23T09:36:45;98087.75;;;7.83;100.00
77410;BME280;66481;51.332;22.804;2024-02-23T09:40:46;98101.59;;;7.75;100.00
77410;BME280;66481;51.332;22.804;2024-02-23T09:44:49;98097.19;;;7.76;100.00
77410;BME280;66481;51.332;22.804;2024-02-23T09:48:51;98107.56;;;7.77;100.00
77410;BME280;66481;51.332;22.804;2024-02-23T09:52:55;98101.03;;;7.71;100.00
77410;BME280;66481;51.332;22.804;2024-02-23T09:56:57;98110.75;;;7.71;100.00
77410;BME280;66481;51.332;22.804;2024-02-23T10:00:58;98117.13;;;7.68;100.00
77410;BME280;66481;51.332;22.804;2024-02-23T10:05:01;98114.88;;;7.64;100.00
77410;BME280;66481;51.332;22.804;2024-02-23T10:09:03;98114.19;;;7.62;100.00
77410;BME280;66481;51.332;22.804;2024-02-23T10:13:05;98117.91;;;7.59;100.00
77410;BME280;66481;51.332;22.804;2024-02-23T10:17:06;98126.91;;;7.57;100.00
77410;BME280;66481;51.332;22.804;2024-02-23T10:21:07;98113.31;;;7.51;100.00
77410;BME280;66481;51.332;22.804;2024-02-23T10:25:08;98133.25;;;7.54;100.00
77410;BME280;66481;51.332;22.804;2024-02-23T10:29:09;98126.09;;;7.56;100.00
77410;BME280;66481;51.332;22.804;2024-02-23T10:33:12;98128.88;;;7.64;100.00
77410;BME280;66481;51.332;22.804;2024-02-23T10:37:14;98117.91;;;7.59;100.00
77410;BME280;66481;51.332;22.804;2024-02-23T10:41:17;98131.47;;;7.55;100.00
77410;BME280;66481;51.332;22.804;2024-02-23T10:45:19;98122.72;;;7.54;100.00
77410;BME280;66481;51.332;22.804;2024-02-23T10:49:24;98138.53;;;7.54;100.00
77410;BME280;66481;51.332;22.804;2024-02-23T10:53:27;98136.44;;;7.48;100.00
77410;BME280;66481;51.332;22.804;2024-02-23T10:57:29;98143.78;;;7.44;100.00
77410;BME280;66481;51.332;22.804;2024-02-23T11:01:50;98147.34;;;7.43;100.00
77410;BME280;66481;51.332;22.804;2024-02-23T11:05:53;98142.34;;;7.40;100.00
77410;BME280;66481;51.332;22.804;2024-02-23T11:09:59;98157.31;;;7.40;100.00
77410;BME280;66481;51.332;22.804;2024-02-23T11:14:03;98162.56;;;7.40;100.00
77410;BME280;66481;51.332;22.804;2024-02-23T11:18:23;98159.38;;;7.36;100.00
77410;BME280;66481;51.332;22.804;2024-02-23T11:22:33;98169.78;;;7.38;100.00
77410;BME280;66481;51.332;22.804;2024-02-23T11:26:37;98167.84;;;7.40;100.00
77410;BME280;66481;51.332;22.804;2024-02-23T11:30:43;98165.34;;;7.38;100.00
77410;BME280;66481;51.332;22.804;2024-02-23T11:34:55;98164.78;;;7.34;100.00
77410;BME280;66481;51.332;22.804;2024-02-23T11:39:00;98165.72;;;7.33;100.00
77410;BME280;66481;51.332;22.804;2024-02-23T11:43:02;98179.97;;;7.31;100.00
77410;BME280;66481;51.332;22.804;2024-02-23T11:47:03;98186.19;;;7.30;100.00
77410;BME280;66481;51.332;22.804;2024-02-23T11:51:04;98194.50;;;7.25;100.00
77410;BME280;66481;51.332;22.804;2024-02-23T11:55:06;98196.94;;;7.17;100.00
77410;BME280;66481;51.332;22.804;2024-02-23T11:59:09;98206.06;;;7.13;100.00
77410;BME280;66481;51.332;22.804;2024-02-23T12:03:11;98231.97;;;7.18;100.00
77410;BME280;66481;51.332;22.804;2024-02-23T12:07:13;98241.22;;;7.12;100.00
77410;BME280;66481;51.332;22.804;2024-02-23T12:11:14;98246.22;;;7.15;100.00
77410;BME280;66481;51.332;22.804;2024-02-23T12:15:15;98246.34;;;7.13;100.00
77410;BME280;66481;51.332;22.804;2024-02-23T12:19:16;98243.72;;;7.13;100.00
77410;BME280;66481;51.332;22.804;2024-02-23T12:23:17;98249.22;;;7.10;100.00
77410;BME280;66481;51.332;22.804;2024-02-23T12:27:19;98261.31;;;7.13;100.00
77410;BME280;66481;51.332;22.804;2024-02-23T12:31:25;98263.06;;;7.12;100.00
77410;BME280;66481;51.332;22.804;2024-02-23T12:35:27;98266.41;;;7.14;100.00
77410;BME280;66481;51.332;22.804;2024-02-23T12:39:28;98275.84;;;7.17;100.00
77410;BME280;66481;51.332;22.804;2024-02-23T12:43:30;98290.22;;;7.13;100.00
77410;BME280;66481;51.332;22.804;2024-02-23T12:47:31;98292.59;;;7.16;100.00
77410;BME280;66481;51.332;22.804;2024-02-23T12:51:32;98290.28;;;7.23;100.00
77410;BME280;66481;51.332;22.804;2024-02-23T12:55:34;98291.25;;;7.22;100.00
77410;BME280;66481;51.332;22.804;2024-02-23T12:59:37;98287.03;;;7.30;100.00
77410;BME280;66481;51.332;22.804;2024-02-23T13:03:39;98289.13;;;7.37;100.00
77410;BME280;66481;51.332;22.804;2024-02-23T13:07:43;98297.72;;;7.39;100.00
77410;BME280;66481;51.332;22.804;2024-02-23T13:11:44;98307.56;;;7.37;100.00
77410;BME280;66481;51.332;22.804;2024-02-23T13:15:47;98312.38;;;7.31;100.00
77410;BME280;66481;51.332;22.804;2024-02-23T13:19:49;98307.34;;;7.28;100.00
77410;BME280;66481;51.332;22.804;2024-02-23T13:23:50;98322.19;;;7.29;100.00
77410;BME280;66481;51.332;22.804;2024-02-23T13:27:52;98317.97;;;7.38;100.00
77410;BME280;66481;51.332;22.804;2024-02-23T13:31:54;98321.16;;;7.42;100.00
77410;BME280;66481;51.332;22.804;2024-02-23T13:35:57;98331.56;;;7.43;100.00
77410;BME280;66481;51.332;22.804;2024-02-23T13:39:58;98319.13;;;7.45;100.00
77410;BME280;66481;51.332;22.804;2024-02-23T13:44:00;98326.19;;;7.45;100.00
77410;BME280;66481;51.332;22.804;2024-02-23T13:48:02;98323.44;;;7.46;100.00
77410;BME280;66481;51.332;22.804;2024-02-23T13:52:06;98325.06;;;7.47;100.00
77410;BME280;66481;51.332;22.804;2024-02-23T13:56:07;98336.22;;;7.51;100.00
77410;BME280;66481;51.332;22.804;2024-02-23T14:00:09;98334.53;;;7.50;100.00
77410;BME280;66481;51.332;22.804;2024-02-23T14:04:13;98334.84;;;7.57;100.00
77410;BME280;66481;51.332;22.804;2024-02-23T14:08:15;98342.34;;;7.61;100.00
77410;BME280;66481;51.332;22.804;2024-02-23T14:12:16;98351.81;;;7.64;100.00
77410;BME280;66481;51.332;22.804;2024-02-23T14:16:20;98340.94;;;7.57;100.00
77410;BME280;66481;51.332;22.804;2024-02-23T14:20:21;98340.81;;;7.59;100.00
77410;BME280;66481;51.332;22.804;2024-02-23T14:24:22;98338.06;;;7.60;100.00
77410;BME280;66481;51.332;22.804;2024-02-23T14:28:27;98343.22;;;7.62;100.00
77410;BME280;66481;51.332;22.804;2024-02-23T14:32:29;98346.16;;;7.68;100.00
77410;BME280;66481;51.332;22.804;2024-02-23T14:36:32;98348.91;;;7.67;100.00
77410;BME280;66481;51.332;22.804;2024-02-23T14:40:38;98356.50;;;7.60;100.00
77410;BME280;66481;51.332;22.804;2024-02-23T14:44:39;98355.91;;;7.57;100.00
77410;BME280;66481;51.332;22.804;2024-02-23T14:48:41;98360.34;;;7.56;100.00
77410;BME280;66481;51.332;22.804;2024-02-23T14:52:42;98358.78;;;7.53;100.00
77410;BME280;66481;51.332;22.804;2024-02-23T14:56:45;98371.38;;;7.50;100.00
77410;BME280;66481;51.332;22.804;2024-02-23T15:00:48;98364.56;;;7.47;100.00
77410;BME280;66481;51.332;22.804;2024-02-23T15:04:50;98364.56;;;7.47;100.00
77410;BME280;66481;51.332;22.804;2024-02-23T15:08:54;98365.53;;;7.46;100.00
77410;BME280;66481;51.332;22.804;2024-02-23T15:12:59;98369.13;;;7.45;100.00
77410;BME280;66481;51.332;22.804;2024-02-23T15:17:00;98379.47;;;7.37;100.00
77410;BME280;66481;51.332;22.804;2024-02-23T15:21:07;98394.97;;;7.40;100.00
77410;BME280;66481;51.332;22.804;2024-02-23T15:25:11;98397.47;;;7.42;100.00
77410;BME280;66481;51.332;22.804;2024-02-23T15:29:14;98406.72;;;7.36;100.00
77410;BME280;66481;51.332;22.804;2024-02-23T15:33:15;98408.78;;;7.32;100.00
77410;BME280;66481;51.332;22.804;2024-02-23T15:37:16;98413.22;;;7.32;100.00
77410;BME280;66481;51.332;22.804;2024-02-23T15:41:19;98417.63;;;7.31;100.00
77410;BME280;66481;51.332;22.804;2024-02-23T15:45:20;98425.91;;;7.27;100.00
77410;BME280;66481;51.332;22.804;2024-02-23T15:49:22;98435.44;;;7.28;100.00
77410;BME280;66481;51.332;22.804;2024-02-23T15:53:25;98445.38;;;7.24;100.00
77410;BME280;66481;51.332;22.804;2024-02-23T15:57:26;98450.66;;;7.24;100.00
77410;BME280;66481;51.332;22.804;2024-02-23T16:01:28;98463.81;;;7.24;100.00
77410;BME280;66481;51.332;22.804;2024-02-23T16:05:29;98470.88;;;7.24;100.00
77410;BME280;66481;51.332;22.804;2024-02-23T16:09:32;98478.75;;;7.24;100.00
77410;BME280;66481;51.332;22.804;2024-02-23T16:13:34;98492.97;;;7.21;100.00
77410;BME280;66481;51.332;22.804;2024-02-23T16:17:35;98494.44;;;7.14;100.00
77410;BME280;66481;51.332;22.804;2024-02-23T16:21:38;98510.22;;;7.14;100.00
77410;BME280;66481;51.332;22.804;2024-02-23T16:25:42;98519.19;;;7.11;100.00
77410;BME280;66481;51.332;22.804;2024-02-23T16:29:43;98521.81;;;7.11;100.00
77410;BME280;66481;51.332;22.804;2024-02-23T16:33:44;98522.19;;;7.07;100.00
77410;BME280;66481;51.332;22.804;2024-02-23T16:37:45;98541.41;;;7.07;100.00
77410;BME280;66481;51.332;22.804;2024-02-23T16:41:47;98539.75;;;7.06;100.00
77410;BME280;66481;51.332;22.804;2024-02-23T16:45:49;98559.00;;;7.07;100.00
77410;BME280;66481;51.332;22.804;2024-02-23T16:49:51;98561.63;;;7.07;100.00
77410;BME280;66481;51.332;22.804;2024-02-23T16:53:53;98555.53;;;7.06;100.00
77410;BME280;66481;51.332;22.804;2024-02-23T16:57:54;98560.22;;;7.03;100.00
77410;BME280;66481;51.332;22.804;2024-02-23T17:01:55;98569.88;;;7.02;100.00
77410;BME280;66481;51.332;22.804;2024-02-23T17:05:57;98587.47;;;7.02;100.00
77410;BME280;66481;51.332;22.804;2024-02-23T17:09:59;98581.72;;;6.96;100.00
77410;BME280;66481;51.332;22.804;2024-02-23T17:14:01;98599.06;;;6.99;100.00
77410;BME280;66481;51.332;22.804;2024-02-23T17:18:03;98596.28;;;7.01;100.00
77410;BME280;66481;51.332;22.804;2024-02-23T17:22:04;98593.66;;;7.01;100.00
77410;BME280;66481;51.332;22.804;2024-02-23T17:26:06;98597.16;;;7.01;100.00
77410;BME280;66481;51.332;22.804;2024-02-23T17:30:07;98591.03;;;7.01;100.00
77410;BME280;66481;51.332;22.804;2024-02-23T17:34:08;98615.44;;;7.03;100.00
77410;BME280;66481;51.332;22.804;2024-02-23T17:38:13;98600.84;;;6.99;100.00
77410;BME280;66481;51.332;22.804;2024-02-23T17:42:14;98613.03;;;7.00;100.00
77410;BME280;66481;51.332;22.804;2024-02-23T17:46:16;98625.84;;;7.04;100.00
77410;BME280;66481;51.332;22.804;2024-02-23T17:50:17;98622.59;;;7.01;100.00
77410;BME280;66481;51.332;22.804;2024-02-23T17:54:19;98605.50;;;6.95;100.00
77410;BME280;66481;51.332;22.804;2024-02-23T17:58:20;98604.31;;;6.99;100.00
77410;BME280;66481;51.332;22.804;2024-02-23T18:02:21;98600.13;;;6.96;100.00
77410;BME280;66481;51.332;22.804;2024-02-23T18:06:23;98596.66;;;6.96;100.00
77410;BME280;66481;51.332;22.804;2024-02-23T18:10:25;98605.59;;;6.93;100.00
77410;BME280;66481;51.332;22.804;2024-02-23T18:14:26;98603.09;;;6.92;100.00
77410;BME280;66481;51.332;22.804;2024-02-23T18:18:30;98607.19;;;6.96;100.00
77410;BME280;66481;51.332;22.804;2024-02-23T18:22:31;98601.69;;;6.99;100.00
77410;BME280;66481;51.332;22.804;2024-02-23T18:26:34;98608.34;;;6.92;100.00
77410;BME280;66481;51.332;22.804;2024-02-23T18:30:36;98605.59;;;6.93;100.00
77410;BME280;66481;51.332;22.804;2024-02-23T18:34:37;98602.25;;;6.91;100.00
77410;BME280;66481;51.332;22.804;2024-02-23T18:38:43;98596.28;;;6.89;100.00
77410;BME280;66481;51.332;22.804;2024-02-23T18:42:44;98590.09;;;6.90;100.00
77410;BME280;66481;51.332;22.804;2024-02-23T18:46:47;98603.94;;;6.92;100.00
77410;BME280;66481;51.332;22.804;2024-02-23T18:50:48;98605.59;;;6.93;100.00
77410;BME280;66481;51.332;22.804;2024-02-23T18:54:51;98595.81;;;6.95;100.00
77410;BME280;66481;51.332;22.804;2024-02-23T18:58:54;98598.91;;;7.01;100.00
77410;BME280;66481;51.332;22.804;2024-02-23T19:02:55;98604.31;;;6.99;100.00
77410;BME280;66481;51.332;22.804;2024-02-23T19:06:58;98603.47;;;6.99;100.00
77410;BME280;66481;51.332;22.804;2024-02-23T19:10:59;98595.81;;;6.95;100.00
77410;BME280;66481;51.332;22.804;2024-02-23T19:15:01;98603.69;;;6.95;100.00
77410;BME280;66481;51.332;22.804;2024-02-23T19:19:05;98604.31;;;6.99;100.00
77410;BME280;66481;51.332;22.804;2024-02-23T19:23:07;98585.28;;;6.95;100.00
77410;BME280;66481;51.332;22.804;2024-02-23T19:27:09;98582.44;;;6.99;100.00
77410;BME280;66481;51.332;22.804;2024-02-23T19:31:10;98574.19;;;7.03;100.00
77410;BME280;66481;51.332;22.804;2024-02-23T19:35:12;98582.06;;;7.03;100.00
77410;BME280;66481;51.332;22.804;2024-02-23T19:39:18;98582.91;;;7.04;100.00
77410;BME280;66481;51.332;22.804;2024-02-23T19:43:19;98587.47;;;7.02;100.00
77410;BME280;66481;51.332;22.804;2024-02-23T19:47:22;98582.06;;;7.03;100.00
77410;BME280;66481;51.332;22.804;2024-02-23T19:51:24;98582.06;;;7.03;100.00
77410;BME280;66481;51.332;22.804;2024-02-23T19:55:26;98573.47;;;7.01;100.00
77410;BME280;66481;51.332;22.804;2024-02-23T19:59:28;98579.19;;;6.95;100.00
77410;BME280;66481;51.332;22.804;2024-02-23T20:03:30;98591.41;;;6.96;100.00
77410;BME280;66481;51.332;22.804;2024-02-23T20:07:32;98570.22;;;6.86;100.00
77410;BME280;66481;51.332;22.804;2024-02-23T20:11:34;98591.75;;;6.91;100.00
77410;BME280;66481;51.332;22.804;2024-02-23T20:15:41;98582.19;;;6.90;100.00
77410;BME280;66481;51.332;22.804;2024-02-23T20:19:47;98581.56;;;6.87;100.00
77410;BME280;66481;51.332;22.804;2024-02-23T20:23:48;98581.22;;;6.80;100.00
77410;BME280;66481;51.332;22.804;2024-02-23T20:27:49;98579.31;;;6.82;100.00
77410;BME280;66481;51.332;22.804;2024-02-23T20:31:52;98572.25;;;6.71;100.00
77410;BME280;66481;51.332;22.804;2024-02-23T20:35:56;98587.16;;;6.71;100.00
77410;BME280;66481;51.332;22.804;2024-02-23T20:39:57;98571.50;;;6.69;100.00
77410;BME280;66481;51.332;22.804;2024-02-23T20:44:00;98574.63;;;6.63;100.00
77410;BME280;66481;51.332;22.804;2024-02-23T20:48:04;98568.50;;;6.63;100.00
77410;BME280;66481;51.332;22.804;2024-02-23T20:52:05;98579.50;;;6.56;100.00
77410;BME280;66481;51.332;22.804;2024-02-23T20:56:07;98588.31;;;6.55;100.00
77410;BME280;66481;51.332;22.804;2024-02-23T21:00:13;98587.00;;;6.50;100.00
77410;BME280;66481;51.332;22.804;2024-02-23T21:04:15;98585.09;;;6.40;100.00
77410;BME280;66481;51.332;22.804;2024-02-23T21:08:19;98574.41;;;6.31;100.00
77410;BME280;66481;51.332;22.804;2024-02-23T21:12:21;98592.47;;;6.35;100.00